Nyk Deneb — 3EOF8 — position and weather

sailwx.info

Track history (hours):
 
Tides and Currents Weather Stations Pressure Air Temp Water Temp Dewpoint Dewpoint Depression Visibility Wind Speed Wind Dir Waves Ship Positions

Nyk Deneb

Last reported at 2015-Jan-25 19:33 UTC. Time now 2015-Jan-25 20:23 UTC.
Position N 40°39' W 074°09'.

Length 294 m; draft 12 m.

Type: Ship (hazmat cat B). MMSI: 355717000.

Date/timePositionNaut miles runAvg speedWind from/ knotsBaromVisibWave heightAir tempDewpointWater temp
2015-Jan-25 19:33N 40°39' W 074°09'2 1.8
2015-Jan-25 18:33N 40°39' W 074°11'0 0.0
2015-Jan-25 15:06N 40°39' W 074°11'0 0.0
2015-Jan-25 14:18N 40°39' W 074°11'0 0.0
2015-Jan-25 12:30N 40°39' W 074°11'0 0.0
2015-Jan-25 11:24N 40°39' W 074°11'0 0.0
2015-Jan-25 10:06N 40°39' W 074°11'0 0.0
2015-Jan-25 09:24N 40°39' W 074°11'0 0.0
2015-Jan-25 05:30N 40°39' W 074°11'0 0.0
2015-Jan-25 04:30N 40°39' W 074°11'0 0.0
2015-Jan-25 03:30N 40°39' W 074°11'0 0.0
2015-Jan-25 02:30N 40°39' W 074°11'0 0.0
2015-Jan-25 01:30N 40°39' W 074°11'0 0.0
2015-Jan-25 00:30N 40°39' W 074°11'0 0.0
2015-Jan-24 22:21N 40°39' W 074°11'1 1.1
2015-Jan-24 21:33N 40°39' W 074°10'6 5.8
2015-Jan-24 20:33N 40°37' W 074°03'9 9.5
2015-Jan-24 19:33N 40°29' W 073°55'9 8.4
2015-Jan-24 18:26N 40°22' W 073°47'9 9.1
2015-Jan-24 17:30N 40°14' W 073°45'1511.0
2015-Jan-24 16:08N 39°59' W 073°43'1112.3
2015-Jan-24 15:15N 39°48' W 073°41'912.3
2015-Jan-24 14:33N 39°40' W 073°41'1212.5
2015-Jan-24 13:33N 39°27' W 073°41'  
Track history (hours):
 
Tides and Currents Weather Stations Pressure Air Temp Water Temp Dewpoint Dewpoint Depression Visibility Wind Speed Wind Dir Waves Ship Positions

Nyk Deneb

Last reported at 2015-Jan-25 19:33 UTC. Time now 2015-Jan-25 20:23 UTC.
Position N 40°39' W 074°09'.

Length 294 m; draft 12 m.

Type: Ship (hazmat cat B). MMSI: 355717000.

Date/timePositionNaut miles runAvg speedWind from/ knotsBaromVisibWave heightAir tempDewpointWater temp
2015-Jan-25 19:33N 40°39' W 074°09'2 1.8
2015-Jan-25 18:33N 40°39' W 074°11'0 0.0
2015-Jan-25 15:06N 40°39' W 074°11'0 0.0
2015-Jan-25 14:18N 40°39' W 074°11'0 0.0
2015-Jan-25 12:30N 40°39' W 074°11'0 0.0
2015-Jan-25 11:24N 40°39' W 074°11'0 0.0
2015-Jan-25 10:06N 40°39' W 074°11'0 0.0
2015-Jan-25 09:24N 40°39' W 074°11'0 0.0
2015-Jan-25 05:30N 40°39' W 074°11'0 0.0
2015-Jan-25 04:30N 40°39' W 074°11'0 0.0
2015-Jan-25 03:30N 40°39' W 074°11'0 0.0
2015-Jan-25 02:30N 40°39' W 074°11'0 0.0
2015-Jan-25 01:30N 40°39' W 074°11'0 0.0
2015-Jan-25 00:30N 40°39' W 074°11'0 0.0
2015-Jan-24 22:21N 40°39' W 074°11'1 1.1
2015-Jan-24 21:33N 40°39' W 074°10'6 5.8
2015-Jan-24 20:33N 40°37' W 074°03'9 9.5
2015-Jan-24 19:33N 40°29' W 073°55'9 8.4
2015-Jan-24 18:26N 40°22' W 073°47'9 9.1
2015-Jan-24 17:30N 40°14' W 073°45'1511.0
2015-Jan-24 16:08N 39°59' W 073°43'1112.3
2015-Jan-24 15:15N 39°48' W 073°41'912.3
2015-Jan-24 14:33N 39°40' W 073°41'1212.5
2015-Jan-24 13:33N 39°27' W 073°41'  

Dump ship's entire track history